createdAt,value
2022-09-07T00:03:37.647Z,19.60
2022-09-07T00:08:44.125Z,20.23
2022-09-07T00:13:48.714Z,21.60
2022-09-07T00:18:51.780Z,20.57
2022-09-07T00:23:55.205Z,19.25
2022-09-07T00:29:02.553Z,18.77
2022-09-07T00:34:05.820Z,17.55
2022-09-07T00:39:08.900Z,17.58
2022-09-07T00:44:48.674Z,17.80
2022-09-07T00:49:55.265Z,15.93
2022-09-07T00:55:01.973Z,16.90
2022-09-07T01:00:05.807Z,17.25
2022-09-07T01:05:35.220Z,16.20
2022-09-07T01:10:38.901Z,16.13
2022-09-07T01:16:00.364Z,14.30
2022-09-07T01:21:44.555Z,13.25
2022-09-07T01:27:24.286Z,13.17
2022-09-07T01:32:48.977Z,13.20
2022-09-07T01:38:04.703Z,12.52
2022-09-07T01:43:21.917Z,11.93
2022-09-07T01:48:26.481Z,11.27
2022-09-07T01:53:34.708Z,10.23
2022-09-07T01:58:45.319Z,9.05
2022-09-07T02:03:53.837Z,9.38
2022-09-07T02:08:59.737Z,10.25
2022-09-07T02:14:16.711Z,8.50
2022-09-07T02:19:21.259Z,7.80
2022-09-07T02:24:38.168Z,9.23
2022-09-07T02:29:41.091Z,8.43
2022-09-07T02:34:43.786Z,8.38
2022-09-07T02:39:46.698Z,7.70
2022-09-07T02:44:49.615Z,7.55
2022-09-07T02:50:13.695Z,7.88
2022-09-07T02:55:59.611Z,7.43
2022-09-07T03:01:57.867Z,6.53
2022-09-07T03:07:04.660Z,6.93
2022-09-07T03:12:08.196Z,5.97
2022-09-07T03:17:11.341Z,7.07
2022-09-07T03:22:14.056Z,8.10
2022-09-07T03:27:16.708Z,6.20
2022-09-07T03:32:19.398Z,6.60
2022-09-07T03:37:22.120Z,6.88
2022-09-07T03:42:24.979Z,6.15
2022-09-07T03:47:27.891Z,5.90
2022-09-07T03:52:30.899Z,5.50
2022-09-07T03:57:33.717Z,5.13
2022-09-07T04:02:36.466Z,5.57
2022-09-07T04:07:39.356Z,5.68
2022-09-07T04:12:42.229Z,5.68
2022-09-07T04:17:44.912Z,6.07
2022-09-07T04:22:54.232Z,10.18
2022-09-07T04:27:57.576Z,5.30
2022-09-07T04:33:00.303Z,9.82
2022-09-07T04:38:02.953Z,4.80
2022-09-07T04:43:05.909Z,5.55
2022-09-07T04:48:08.667Z,5.22
2022-09-07T04:53:11.395Z,5.10
2022-09-07T04:58:14.298Z,5.30
2022-09-07T05:03:17.004Z,4.93
2022-09-07T05:08:19.695Z,5.18
2022-09-07T05:13:22.531Z,5.47
2022-09-07T05:18:25.782Z,5.38
2022-09-07T05:23:28.446Z,6.70
2022-09-07T05:28:31.652Z,6.22
2022-09-07T05:38:59.234Z,7.00
2022-09-07T05:49:25.323Z,5.40
2022-09-07T05:54:28.260Z,5.88
2022-09-07T05:59:31.178Z,6.90
2022-09-07T06:04:34.146Z,6.88
2022-09-07T06:15:01.886Z,6.43
2022-09-07T06:20:07.047Z,7.43
2022-09-07T06:25:09.995Z,7.47
2022-09-07T06:30:13.303Z,7.38
2022-09-07T06:35:16.364Z,6.97
2022-09-07T06:40:21.376Z,7.30
2022-09-07T06:45:24.285Z,7.70
2022-09-07T06:50:28.237Z,8.70
2022-09-07T06:55:31.113Z,10.60
2022-09-07T07:00:33.909Z,10.65
2022-09-07T07:05:36.704Z,9.95
2022-09-07T07:10:39.808Z,9.52
2022-09-07T07:15:43.206Z,9.45
2022-09-07T07:20:46.034Z,9.25
2022-09-07T07:25:48.773Z,9.82
2022-09-07T07:31:04.864Z,10.18
2022-09-07T07:36:16.169Z,11.60
2022-09-07T07:46:43.708Z,10.10
2022-09-07T07:57:09.794Z,10.43
2022-09-07T08:02:16.071Z,10.65
2022-09-07T08:07:19.691Z,10.13
2022-09-07T08:12:25.503Z,10.27
2022-09-07T08:17:30.611Z,10.95
2022-09-07T08:22:34.961Z,12.00
2022-09-07T08:27:37.680Z,12.10
2022-09-07T08:32:40.910Z,9.57
2022-09-07T08:37:43.719Z,10.48
2022-09-07T08:43:04.213Z,9.50
2022-09-07T08:48:06.971Z,10.90
2022-09-07T08:53:15.507Z,9.88
2022-09-07T08:58:49.266Z,9.20
2022-09-07T09:09:30.063Z,9.82
2022-09-07T09:14:38.855Z,10.82
2022-09-07T09:20:01.274Z,9.88
2022-09-07T09:25:19.217Z,9.68
2022-09-07T09:30:23.351Z,10.07
2022-09-07T09:52:44.976Z,9.70
2022-09-07T10:08:38.567Z,11.52
2022-09-07T10:13:47.128Z,9.70
2022-09-07T10:18:59.465Z,10.07
2022-09-07T10:24:08.537Z,10.15
2022-09-07T10:29:36.294Z,11.32
2022-09-07T10:35:05.310Z,10.50
2022-09-07T10:40:26.389Z,10.68
2022-09-07T10:46:02.428Z,9.90
2022-09-07T10:51:14.242Z,10.27
2022-09-07T10:56:31.118Z,9.82
2022-09-07T11:01:46.067Z,9.77
2022-09-07T11:07:00.135Z,9.43
2022-09-07T11:17:23.871Z,8.85
2022-09-07T11:22:52.610Z,8.63
2022-09-07T11:28:43.227Z,8.65
2022-09-07T11:34:26.519Z,8.77
2022-09-07T11:39:35.762Z,8.75
2022-09-07T11:44:47.626Z,8.43
2022-09-07T11:49:59.297Z,9.02
2022-09-07T11:55:11.822Z,9.48
2022-09-07T12:00:19.938Z,7.90
2022-09-07T12:05:44.261Z,6.80
2022-09-07T12:11:08.486Z,6.47
2022-09-07T12:16:22.096Z,6.85
2022-09-07T12:22:01.822Z,4.57
2022-09-07T12:27:36.425Z,4.38
2022-09-07T12:32:56.456Z,3.42
2022-09-07T12:38:18.729Z,3.70
2022-09-07T12:43:22.253Z,3.72
2022-09-07T12:48:37.101Z,3.15
2022-09-07T12:53:58.659Z,3.92
2022-09-07T12:59:17.523Z,3.70
2022-09-07T13:04:41.177Z,3.80
2022-09-07T13:09:56.661Z,3.97
2022-09-07T13:15:00.056Z,4.00
2022-09-07T13:20:02.782Z,4.68
2022-09-07T13:25:28.908Z,5.03
2022-09-07T13:30:44.913Z,5.05
2022-09-07T13:40:58.088Z,5.13
2022-09-07T13:46:03.604Z,5.00
2022-09-07T13:51:12.958Z,5.70
2022-09-07T13:56:28.628Z,6.68
2022-09-07T14:01:31.629Z,5.95
2022-09-07T14:06:36.685Z,6.55
2022-09-07T14:11:47.869Z,6.55
2022-09-07T14:17:06.689Z,6.80
2022-09-07T14:22:16.393Z,7.00
2022-09-07T14:27:26.510Z,5.85
2022-09-07T14:32:29.394Z,6.32
2022-09-07T14:37:32.213Z,6.78
2022-09-07T14:42:36.839Z,6.97
2022-09-07T14:47:41.022Z,6.60
2022-09-07T14:53:33.925Z,7.57
2022-09-07T14:58:15.312Z,7.43
2022-09-07T15:03:34.208Z,6.93
2022-09-07T15:08:48.615Z,7.03
2022-09-07T15:14:05.786Z,7.50
2022-09-07T15:19:18.731Z,7.57
2022-09-07T15:24:24.196Z,7.00
2022-09-07T15:34:33.419Z,7.28
2022-09-07T15:39:37.354Z,6.63
2022-09-07T15:44:40.003Z,7.03
2022-09-07T15:49:49.181Z,7.47
2022-09-07T15:54:52.958Z,7.85
2022-09-07T15:59:55.690Z,7.70
2022-09-07T16:04:58.606Z,8.15
2022-09-07T16:10:05.099Z,8.45
2022-09-07T16:15:12.737Z,7.70
2022-09-07T16:20:15.824Z,8.10
2022-09-07T16:25:18.709Z,7.15
2022-09-07T16:30:22.317Z,7.05
2022-09-07T16:35:25.807Z,7.13
2022-09-07T16:40:28.527Z,6.70
2022-09-07T16:51:01.103Z,6.07
2022-09-07T16:56:13.036Z,5.97
2022-09-07T17:01:17.924Z,6.15
2022-09-07T17:06:22.601Z,5.63
2022-09-07T17:11:31.198Z,4.90
2022-09-07T17:16:36.776Z,4.43
2022-09-07T17:21:40.874Z,4.75
2022-09-07T17:26:43.859Z,4.90
2022-09-07T17:37:09.437Z,4.25
2022-09-07T17:42:12.189Z,4.13
2022-09-07T17:47:14.924Z,3.58
2022-09-07T17:52:17.617Z,3.90
2022-09-07T17:57:20.311Z,3.95
2022-09-07T18:02:23.289Z,3.15
2022-09-07T18:07:26.111Z,3.08
2022-09-07T18:12:28.894Z,2.92
2022-09-07T18:17:31.516Z,2.22
2022-09-07T18:22:34.588Z,2.35
2022-09-07T18:27:39.695Z,2.20
2022-09-07T18:32:45.249Z,1.58
2022-09-07T18:42:50.777Z,1.80
2022-09-07T18:47:55.116Z,1.80
2022-09-07T18:53:07.328Z,1.17
2022-09-07T18:58:18.693Z,1.40
2022-09-07T19:03:21.716Z,1.23
2022-09-07T19:08:24.391Z,1.63
2022-09-07T19:13:27.422Z,1.10
2022-09-07T19:18:30.145Z,1.17
2022-09-07T19:23:33.533Z,1.65
2022-09-07T19:28:37.240Z,1.88
2022-09-07T19:33:39.904Z,1.20
2022-09-07T19:38:42.775Z,0.90
2022-09-07T19:43:46.533Z,0.95
2022-09-07T19:48:49.376Z,1.30
2022-09-07T19:53:52.204Z,1.40
2022-09-07T19:58:54.919Z,0.90
2022-09-07T20:03:59.731Z,1.02
2022-09-07T20:09:02.636Z,0.93
2022-09-07T20:14:05.471Z,0.77
2022-09-07T20:19:08.296Z,0.45
2022-09-07T20:24:14.872Z,0.82
2022-09-07T20:29:27.283Z,0.75
2022-09-07T20:34:30.646Z,0.73
2022-09-07T20:39:38.408Z,0.80
2022-09-07T20:44:41.916Z,0.52
2022-09-07T20:49:44.648Z,0.63
2022-09-07T20:54:47.341Z,0.73
2022-09-07T20:59:50.013Z,0.93
2022-09-07T21:04:52.825Z,1.48
2022-09-07T21:09:55.713Z,0.68
2022-09-07T21:14:58.697Z,0.85
2022-09-07T21:20:01.426Z,0.57
2022-09-07T21:25:04.268Z,0.50
2022-09-07T21:30:07.472Z,1.00
2022-09-07T21:35:13.420Z,0.73
2022-09-07T21:40:16.609Z,0.73
2022-09-07T21:45:19.438Z,0.80
2022-09-07T21:50:22.256Z,1.00
2022-09-07T21:55:24.936Z,0.80
2022-09-07T22:00:27.633Z,0.68
2022-09-07T22:05:30.288Z,0.77
2022-09-07T22:10:33.994Z,0.70
2022-09-07T22:15:41.317Z,0.90
2022-09-07T22:20:43.991Z,0.70
2022-09-07T22:25:53.590Z,0.90
2022-09-07T22:30:57.399Z,1.17
2022-09-07T22:36:16.284Z,0.85
2022-09-07T22:41:29.758Z,0.77
2022-09-07T22:46:36.033Z,0.95
2022-09-07T22:51:39.176Z,1.17
2022-09-07T22:56:42.368Z,0.70
2022-09-07T23:01:46.188Z,0.88
2022-09-07T23:06:48.980Z,0.60
2022-09-07T23:11:51.628Z,0.80
2022-09-07T23:16:54.431Z,0.70
2022-09-07T23:21:57.075Z,0.73
2022-09-07T23:26:59.714Z,0.70
2022-09-07T23:32:02.532Z,0.80
2022-09-07T23:37:05.356Z,0.68
2022-09-07T23:42:08.350Z,0.95
2022-09-07T23:47:11.194Z,1.10
2022-09-07T23:52:13.976Z,0.65
2022-09-07T23:57:16.736Z,0.70
